sensor_id;sensor_type;location;lat;lon;timestamp;P1;durP1;ratioP1;P2;durP2;ratioP2
71475;SDS011;59286;59.274;17.974;2022-07-29T00:00:38;0.73;;;0.30;;
71475;SDS011;59286;59.274;17.974;2022-07-29T00:03:04;1.73;;;0.50;;
71475;SDS011;59286;59.274;17.974;2022-07-29T00:05:29;0.52;;;0.40;;
71475;SDS011;59286;59.274;17.974;2022-07-29T00:07:54;1.15;;;0.50;;
71475;SDS011;59286;59.274;17.974;2022-07-29T00:10:20;1.17;;;0.40;;
71475;SDS011;59286;59.274;17.974;2022-07-29T00:12:46;0.57;;;0.38;;
71475;SDS011;59286;59.274;17.974;2022-07-29T00:15:11;1.27;;;0.45;;
71475;SDS011;59286;59.274;17.974;2022-07-29T00:17:36;0.98;;;0.50;;
71475;SDS011;59286;59.274;17.974;2022-07-29T00:20:02;1.83;;;0.57;;
71475;SDS011;59286;59.274;17.974;2022-07-29T00:22:28;3.03;;;0.70;;
71475;SDS011;59286;59.274;17.974;2022-07-29T00:24:54;1.20;;;0.43;;
71475;SDS011;59286;59.274;17.974;2022-07-29T00:27:19;0.85;;;0.57;;
71475;SDS011;59286;59.274;17.974;2022-07-29T00:29:45;1.45;;;0.50;;
71475;SDS011;59286;59.274;17.974;2022-07-29T00:32:10;0.60;;;0.38;;
71475;SDS011;59286;59.274;17.974;2022-07-29T00:34:35;1.85;;;0.52;;
71475;SDS011;59286;59.274;17.974;2022-07-29T00:37:19;1.80;;;0.43;;
71475;SDS011;59286;59.274;17.974;2022-07-29T00:39:45;1.50;;;0.75;;
71475;SDS011;59286;59.274;17.974;2022-07-29T00:42:10;1.75;;;0.60;;
71475;SDS011;59286;59.274;17.974;2022-07-29T00:44:38;0.93;;;0.45;;
71475;SDS011;59286;59.274;17.974;2022-07-29T00:47:04;1.55;;;0.43;;
71475;SDS011;59286;59.274;17.974;2022-07-29T00:49:30;1.40;;;0.60;;
71475;SDS011;59286;59.274;17.974;2022-07-29T00:51:55;0.88;;;0.47;;
71475;SDS011;59286;59.274;17.974;2022-07-29T00:54:22;1.48;;;0.50;;
71475;SDS011;59286;59.274;17.974;2022-07-29T00:56:48;3.25;;;0.70;;
71475;SDS011;59286;59.274;17.974;2022-07-29T00:59:14;1.98;;;0.60;;
71475;SDS011;59286;59.274;17.974;2022-07-29T01:01:39;1.40;;;0.60;;
71475;SDS011;59286;59.274;17.974;2022-07-29T01:04:05;1.33;;;0.60;;
71475;SDS011;59286;59.274;17.974;2022-07-29T01:06:31;1.33;;;0.50;;
71475;SDS011;59286;59.274;17.974;2022-07-29T01:08:58;0.70;;;0.40;;
71475;SDS011;59286;59.274;17.974;2022-07-29T01:11:24;0.93;;;0.60;;
71475;SDS011;59286;59.274;17.974;2022-07-29T01:13:50;1.80;;;0.60;;
71475;SDS011;59286;59.274;17.974;2022-07-29T01:16:21;2.72;;;0.52;;
71475;SDS011;59286;59.274;17.974;2022-07-29T01:18:56;1.08;;;0.40;;
71475;SDS011;59286;59.274;17.974;2022-07-29T01:29:12;0.70;;;0.50;;
71475;SDS011;59286;59.274;17.974;2022-07-29T01:34:29;1.00;;;0.40;;
71475;SDS011;59286;59.274;17.974;2022-07-29T01:37:20;0.65;;;0.43;;
71475;SDS011;59286;59.274;17.974;2022-07-29T01:39:49;1.52;;;0.60;;
71475;SDS011;59286;59.274;17.974;2022-07-29T01:42:35;1.58;;;0.68;;
71475;SDS011;59286;59.274;17.974;2022-07-29T01:47:37;0.63;;;0.40;;
71475;SDS011;59286;59.274;17.974;2022-07-29T01:50:07;0.68;;;0.43;;
71475;SDS011;59286;59.274;17.974;2022-07-29T01:52:37;0.40;;;0.40;;
71475;SDS011;59286;59.274;17.974;2022-07-29T01:55:14;0.98;;;0.50;;
71475;SDS011;59286;59.274;17.974;2022-07-29T01:57:45;0.47;;;0.38;;
71475;SDS011;59286;59.274;17.974;2022-07-29T02:00:12;2.38;;;0.40;;
71475;SDS011;59286;59.274;17.974;2022-07-29T02:02:39;3.33;;;0.43;;
71475;SDS011;59286;59.274;17.974;2022-07-29T02:05:07;1.20;;;0.50;;
71475;SDS011;59286;59.274;17.974;2022-07-29T02:07:35;1.30;;;0.50;;
71475;SDS011;59286;59.274;17.974;2022-07-29T02:10:03;0.68;;;0.50;;
71475;SDS011;59286;59.274;17.974;2022-07-29T02:12:31;0.50;;;0.43;;
71475;SDS011;59286;59.274;17.974;2022-07-29T02:14:58;0.45;;;0.40;;
71475;SDS011;59286;59.274;17.974;2022-07-29T02:17:27;1.23;;;0.50;;
71475;SDS011;59286;59.274;17.974;2022-07-29T02:19:59;0.40;;;0.40;;
71475;SDS011;59286;59.274;17.974;2022-07-29T02:22:26;0.40;;;0.40;;
71475;SDS011;59286;59.274;17.974;2022-07-29T02:24:55;1.10;;;0.40;;
71475;SDS011;59286;59.274;17.974;2022-07-29T02:27:22;1.75;;;0.60;;
71475;SDS011;59286;59.274;17.974;2022-07-29T02:29:49;0.63;;;0.40;;
71475;SDS011;59286;59.274;17.974;2022-07-29T02:32:16;0.40;;;0.30;;
71475;SDS011;59286;59.274;17.974;2022-07-29T02:34:44;0.52;;;0.50;;
71475;SDS011;59286;59.274;17.974;2022-07-29T02:37:11;2.20;;;0.60;;
71475;SDS011;59286;59.274;17.974;2022-07-29T02:39:39;0.25;;;0.20;;
71475;SDS011;59286;59.274;17.974;2022-07-29T02:42:07;0.30;;;0.30;;
71475;SDS011;59286;59.274;17.974;2022-07-29T02:44:36;0.75;;;0.30;;
71475;SDS011;59286;59.274;17.974;2022-07-29T02:47:22;2.13;;;0.45;;
71475;SDS011;59286;59.274;17.974;2022-07-29T02:52:58;0.20;;;0.20;;
71475;SDS011;59286;59.274;17.974;2022-07-29T02:55:43;0.70;;;0.40;;
71475;SDS011;59286;59.274;17.974;2022-07-29T02:58:15;0.82;;;0.40;;
71475;SDS011;59286;59.274;17.974;2022-07-29T03:00:53;0.40;;;0.40;;
71475;SDS011;59286;59.274;17.974;2022-07-29T03:03:21;0.47;;;0.30;;
71475;SDS011;59286;59.274;17.974;2022-07-29T03:05:52;1.65;;;0.30;;
71475;SDS011;59286;59.274;17.974;2022-07-29T03:08:23;0.65;;;0.40;;
71475;SDS011;59286;59.274;17.974;2022-07-29T03:10:49;0.43;;;0.30;;
71475;SDS011;59286;59.274;17.974;2022-07-29T03:13:16;1.38;;;0.40;;
71475;SDS011;59286;59.274;17.974;2022-07-29T03:15:43;0.65;;;0.20;;
71475;SDS011;59286;59.274;17.974;2022-07-29T03:18:09;0.68;;;0.30;;
71475;SDS011;59286;59.274;17.974;2022-07-29T03:20:36;0.45;;;0.40;;
71475;SDS011;59286;59.274;17.974;2022-07-29T03:23:02;0.68;;;0.50;;
71475;SDS011;59286;59.274;17.974;2022-07-29T03:25:28;2.00;;;0.47;;
71475;SDS011;59286;59.274;17.974;2022-07-29T03:27:53;0.50;;;0.50;;
71475;SDS011;59286;59.274;17.974;2022-07-29T03:30:19;1.40;;;0.40;;
71475;SDS011;59286;59.274;17.974;2022-07-29T03:32:44;0.80;;;0.60;;
71475;SDS011;59286;59.274;17.974;2022-07-29T03:35:09;1.20;;;0.40;;
71475;SDS011;59286;59.274;17.974;2022-07-29T03:37:35;0.38;;;0.38;;
71475;SDS011;59286;59.274;17.974;2022-07-29T03:40:02;1.30;;;0.50;;
71475;SDS011;59286;59.274;17.974;2022-07-29T03:42:30;0.93;;;0.43;;
71475;SDS011;59286;59.274;17.974;2022-07-29T03:44:58;0.50;;;0.40;;
71475;SDS011;59286;59.274;17.974;2022-07-29T03:47:27;0.70;;;0.55;;
71475;SDS011;59286;59.274;17.974;2022-07-29T03:49:59;2.65;;;0.40;;
71475;SDS011;59286;59.274;17.974;2022-07-29T03:52:26;1.17;;;0.40;;
71475;SDS011;59286;59.274;17.974;2022-07-29T03:54:52;0.50;;;0.40;;
71475;SDS011;59286;59.274;17.974;2022-07-29T03:57:18;1.58;;;0.30;;
71475;SDS011;59286;59.274;17.974;2022-07-29T03:59:48;1.42;;;0.40;;
71475;SDS011;59286;59.274;17.974;2022-07-29T04:02:16;0.55;;;0.40;;
71475;SDS011;59286;59.274;17.974;2022-07-29T04:04:42;0.90;;;0.50;;
71475;SDS011;59286;59.274;17.974;2022-07-29T04:07:08;0.45;;;0.40;;
71475;SDS011;59286;59.274;17.974;2022-07-29T04:09:37;1.08;;;0.30;;
71475;SDS011;59286;59.274;17.974;2022-07-29T04:12:02;0.40;;;0.30;;
71475;SDS011;59286;59.274;17.974;2022-07-29T04:14:28;0.30;;;0.30;;
71475;SDS011;59286;59.274;17.974;2022-07-29T04:16:53;0.35;;;0.30;;
71475;SDS011;59286;59.274;17.974;2022-07-29T04:19:19;0.10;;;0.10;;
71475;SDS011;59286;59.274;17.974;2022-07-29T04:21:44;0.52;;;0.20;;
71475;SDS011;59286;59.274;17.974;2022-07-29T04:24:10;0.70;;;0.40;;
71475;SDS011;59286;59.274;17.974;2022-07-29T04:26:35;0.98;;;0.30;;
71475;SDS011;59286;59.274;17.974;2022-07-29T04:29:00;0.30;;;0.20;;
71475;SDS011;59286;59.274;17.974;2022-07-29T04:31:26;0.45;;;0.30;;
71475;SDS011;59286;59.274;17.974;2022-07-29T04:33:51;0.30;;;0.30;;
71475;SDS011;59286;59.274;17.974;2022-07-29T04:36:17;2.10;;;0.20;;
71475;SDS011;59286;59.274;17.974;2022-07-29T04:38:42;0.20;;;0.20;;
71475;SDS011;59286;59.274;17.974;2022-07-29T04:41:07;0.25;;;0.20;;
71475;SDS011;59286;59.274;17.974;2022-07-29T04:43:34;0.88;;;0.35;;
71475;SDS011;59286;59.274;17.974;2022-07-29T04:46:02;1.33;;;0.20;;
71475;SDS011;59286;59.274;17.974;2022-07-29T04:48:30;0.90;;;0.20;;
71475;SDS011;59286;59.274;17.974;2022-07-29T04:50:56;1.00;;;0.28;;
71475;SDS011;59286;59.274;17.974;2022-07-29T04:53:21;0.45;;;0.20;;
71475;SDS011;59286;59.274;17.974;2022-07-29T04:55:48;1.08;;;0.30;;
71475;SDS011;59286;59.274;17.974;2022-07-29T04:58:13;1.63;;;0.30;;
71475;SDS011;59286;59.274;17.974;2022-07-29T05:00:39;0.55;;;0.30;;
71475;SDS011;59286;59.274;17.974;2022-07-29T05:03:05;3.05;;;0.40;;
71475;SDS011;59286;59.274;17.974;2022-07-29T05:05:30;2.17;;;0.35;;
71475;SDS011;59286;59.274;17.974;2022-07-29T05:07:56;0.35;;;0.25;;
71475;SDS011;59286;59.274;17.974;2022-07-29T05:10:21;0.98;;;0.20;;
71475;SDS011;59286;59.274;17.974;2022-07-29T05:12:47;1.38;;;0.30;;
71475;SDS011;59286;59.274;17.974;2022-07-29T05:15:13;1.77;;;0.30;;
71475;SDS011;59286;59.274;17.974;2022-07-29T05:17:38;1.75;;;0.20;;
71475;SDS011;59286;59.274;17.974;2022-07-29T05:20:04;1.13;;;0.20;;
71475;SDS011;59286;59.274;17.974;2022-07-29T05:22:31;0.80;;;0.20;;
71475;SDS011;59286;59.274;17.974;2022-07-29T05:24:56;2.15;;;0.30;;
71475;SDS011;59286;59.274;17.974;2022-07-29T05:27:21;0.98;;;0.32;;
71475;SDS011;59286;59.274;17.974;2022-07-29T05:29:47;2.55;;;0.30;;
71475;SDS011;59286;59.274;17.974;2022-07-29T05:32:12;4.03;;;0.50;;
71475;SDS011;59286;59.274;17.974;2022-07-29T05:34:37;2.10;;;0.20;;
71475;SDS011;59286;59.274;17.974;2022-07-29T05:37:03;1.10;;;0.30;;
71475;SDS011;59286;59.274;17.974;2022-07-29T05:39:29;2.20;;;0.28;;
71475;SDS011;59286;59.274;17.974;2022-07-29T05:41:54;2.05;;;0.30;;
71475;SDS011;59286;59.274;17.974;2022-07-29T05:44:19;0.60;;;0.30;;
71475;SDS011;59286;59.274;17.974;2022-07-29T05:46:45;0.98;;;0.32;;
71475;SDS011;59286;59.274;17.974;2022-07-29T05:49:10;1.25;;;0.25;;
71475;SDS011;59286;59.274;17.974;2022-07-29T05:51:35;1.55;;;0.10;;
71475;SDS011;59286;59.274;17.974;2022-07-29T05:54:01;0.82;;;0.20;;
71475;SDS011;59286;59.274;17.974;2022-07-29T05:56:27;0.32;;;0.28;;
71475;SDS011;59286;59.274;17.974;2022-07-29T05:58:52;0.55;;;0.20;;
71475;SDS011;59286;59.274;17.974;2022-07-29T06:01:18;0.73;;;0.20;;
71475;SDS011;59286;59.274;17.974;2022-07-29T06:03:43;0.50;;;0.20;;
71475;SDS011;59286;59.274;17.974;2022-07-29T06:06:09;1.00;;;0.20;;
71475;SDS011;59286;59.274;17.974;2022-07-29T06:08:35;2.63;;;1.17;;
71475;SDS011;59286;59.274;17.974;2022-07-29T06:11:01;0.30;;;0.10;;
71475;SDS011;59286;59.274;17.974;2022-07-29T06:13:27;0.20;;;0.15;;
71475;SDS011;59286;59.274;17.974;2022-07-29T06:15:52;0.45;;;0.20;;
71475;SDS011;59286;59.274;17.974;2022-07-29T06:18:18;0.57;;;0.15;;
71475;SDS011;59286;59.274;17.974;2022-07-29T06:20:45;0.28;;;0.10;;
71475;SDS011;59286;59.274;17.974;2022-07-29T06:23:11;0.20;;;0.10;;
71475;SDS011;59286;59.274;17.974;2022-07-29T06:25:36;0.20;;;0.10;;
71475;SDS011;59286;59.274;17.974;2022-07-29T06:28:02;0.63;;;0.20;;
71475;SDS011;59286;59.274;17.974;2022-07-29T06:30:28;0.43;;;0.30;;
71475;SDS011;59286;59.274;17.974;2022-07-29T06:32:54;1.40;;;0.30;;
71475;SDS011;59286;59.274;17.974;2022-07-29T06:35:20;0.70;;;0.20;;
71475;SDS011;59286;59.274;17.974;2022-07-29T06:37:46;1.75;;;0.40;;
71475;SDS011;59286;59.274;17.974;2022-07-29T06:40:12;0.32;;;0.30;;
71475;SDS011;59286;59.274;17.974;2022-07-29T06:42:56;1.05;;;0.30;;
71475;SDS011;59286;59.274;17.974;2022-07-29T06:45:21;0.10;;;0.10;;
71475;SDS011;59286;59.274;17.974;2022-07-29T06:47:47;0.30;;;0.20;;
71475;SDS011;59286;59.274;17.974;2022-07-29T06:50:13;0.22;;;0.20;;
71475;SDS011;59286;59.274;17.974;2022-07-29T06:52:39;0.50;;;0.20;;
71475;SDS011;59286;59.274;17.974;2022-07-29T06:55:05;1.40;;;0.20;;
71475;SDS011;59286;59.274;17.974;2022-07-29T06:57:31;0.82;;;0.30;;
71475;SDS011;59286;59.274;17.974;2022-07-29T06:59:57;1.95;;;0.30;;
71475;SDS011;59286;59.274;17.974;2022-07-29T07:02:22;1.00;;;0.40;;
71475;SDS011;59286;59.274;17.974;2022-07-29T07:04:48;1.75;;;0.32;;
71475;SDS011;59286;59.274;17.974;2022-07-29T07:07:13;0.85;;;0.30;;
71475;SDS011;59286;59.274;17.974;2022-07-29T07:09:38;0.40;;;0.38;;
71475;SDS011;59286;59.274;17.974;2022-07-29T07:12:04;0.22;;;0.20;;
71475;SDS011;59286;59.274;17.974;2022-07-29T07:14:29;0.82;;;0.40;;
71475;SDS011;59286;59.274;17.974;2022-07-29T07:16:55;1.45;;;0.40;;
71475;SDS011;59286;59.274;17.974;2022-07-29T07:19:20;1.23;;;0.30;;
71475;SDS011;59286;59.274;17.974;2022-07-29T07:21:45;0.40;;;0.30;;
71475;SDS011;59286;59.274;17.974;2022-07-29T07:24:11;1.15;;;0.40;;
71475;SDS011;59286;59.274;17.974;2022-07-29T07:26:36;1.80;;;0.32;;
71475;SDS011;59286;59.274;17.974;2022-07-29T07:29:02;2.75;;;0.20;;
71475;SDS011;59286;59.274;17.974;2022-07-29T07:31:28;0.35;;;0.30;;
71475;SDS011;59286;59.274;17.974;2022-07-29T07:33:53;1.40;;;0.20;;
71475;SDS011;59286;59.274;17.974;2022-07-29T07:36:19;0.57;;;0.20;;
71475;SDS011;59286;59.274;17.974;2022-07-29T07:38:44;2.60;;;0.40;;
71475;SDS011;59286;59.274;17.974;2022-07-29T07:41:09;0.70;;;0.20;;
71475;SDS011;59286;59.274;17.974;2022-07-29T07:43:35;2.67;;;0.45;;
71475;SDS011;59286;59.274;17.974;2022-07-29T07:46:00;1.52;;;0.30;;
71475;SDS011;59286;59.274;17.974;2022-07-29T07:48:25;0.32;;;0.17;;
71475;SDS011;59286;59.274;17.974;2022-07-29T07:50:51;0.40;;;0.20;;
71475;SDS011;59286;59.274;17.974;2022-07-29T07:53:17;0.52;;;0.10;;
71475;SDS011;59286;59.274;17.974;2022-07-29T07:55:42;0.32;;;0.10;;
71475;SDS011;59286;59.274;17.974;2022-07-29T07:58:08;1.60;;;0.20;;
71475;SDS011;59286;59.274;17.974;2022-07-29T08:00:33;0.65;;;0.20;;
71475;SDS011;59286;59.274;17.974;2022-07-29T08:02:59;0.85;;;0.15;;
71475;SDS011;59286;59.274;17.974;2022-07-29T08:05:24;0.10;;;0.10;;
71475;SDS011;59286;59.274;17.974;2022-07-29T08:07:49;1.17;;;0.10;;
71475;SDS011;59286;59.274;17.974;2022-07-29T08:10:15;0.15;;;0.10;;
71475;SDS011;59286;59.274;17.974;2022-07-29T08:13:03;0.17;;;0.17;;
71475;SDS011;59286;59.274;17.974;2022-07-29T08:15:34;0.30;;;0.10;;
71475;SDS011;59286;59.274;17.974;2022-07-29T08:18:00;0.38;;;0.20;;
71475;SDS011;59286;59.274;17.974;2022-07-29T08:20:25;0.60;;;0.20;;
71475;SDS011;59286;59.274;17.974;2022-07-29T08:22:51;3.60;;;0.25;;
71475;SDS011;59286;59.274;17.974;2022-07-29T08:25:17;1.73;;;0.25;;
71475;SDS011;59286;59.274;17.974;2022-07-29T08:27:45;0.22;;;0.20;;
71475;SDS011;59286;59.274;17.974;2022-07-29T08:30:11;0.47;;;0.10;;
71475;SDS011;59286;59.274;17.974;2022-07-29T08:32:36;2.65;;;0.30;;
71475;SDS011;59286;59.274;17.974;2022-07-29T08:35:02;2.35;;;0.30;;
71475;SDS011;59286;59.274;17.974;2022-07-29T08:37:27;0.10;;;0.10;;
71475;SDS011;59286;59.274;17.974;2022-07-29T08:39:53;1.75;;;0.22;;
71475;SDS011;59286;59.274;17.974;2022-07-29T08:42:18;0.30;;;0.20;;
71475;SDS011;59286;59.274;17.974;2022-07-29T08:44:43;0.40;;;0.20;;
71475;SDS011;59286;59.274;17.974;2022-07-29T08:47:09;0.40;;;0.20;;
71475;SDS011;59286;59.274;17.974;2022-07-29T08:49:38;0.88;;;0.20;;
71475;SDS011;59286;59.274;17.974;2022-07-29T08:52:04;0.30;;;0.10;;
71475;SDS011;59286;59.274;17.974;2022-07-29T08:54:30;1.00;;;0.13;;
71475;SDS011;59286;59.274;17.974;2022-07-29T08:56:55;3.72;;;0.10;;
71475;SDS011;59286;59.274;17.974;2022-07-29T08:59:22;1.00;;;0.10;;
71475;SDS011;59286;59.274;17.974;2022-07-29T09:01:52;1.95;;;0.20;;
71475;SDS011;59286;59.274;17.974;2022-07-29T09:04:18;2.60;;;0.13;;
71475;SDS011;59286;59.274;17.974;2022-07-29T09:06:45;2.58;;;0.55;;
71475;SDS011;59286;59.274;17.974;2022-07-29T09:09:16;1.42;;;0.20;;
71475;SDS011;59286;59.274;17.974;2022-07-29T09:11:42;0.75;;;0.13;;
71475;SDS011;59286;59.274;17.974;2022-07-29T09:14:08;4.43;;;0.10;;
71475;SDS011;59286;59.274;17.974;2022-07-29T09:19:19;0.20;;;0.10;;
71475;SDS011;59286;59.274;17.974;2022-07-29T09:21:52;0.57;;;0.20;;
71475;SDS011;59286;59.274;17.974;2022-07-29T09:26:59;0.95;;;0.15;;
71475;SDS011;59286;59.274;17.974;2022-07-29T09:29:25;0.30;;;0.10;;
71475;SDS011;59286;59.274;17.974;2022-07-29T09:31:52;3.28;;;0.25;;
71475;SDS011;59286;59.274;17.974;2022-07-29T09:34:25;1.10;;;0.20;;
71475;SDS011;59286;59.274;17.974;2022-07-29T09:36:53;0.50;;;0.22;;
71475;SDS011;59286;59.274;17.974;2022-07-29T09:39:30;6.95;;;0.43;;
71475;SDS011;59286;59.274;17.974;2022-07-29T09:41:59;2.53;;;0.30;;
71475;SDS011;59286;59.274;17.974;2022-07-29T09:44:26;0.57;;;0.10;;
71475;SDS011;59286;59.274;17.974;2022-07-29T09:47:05;0.30;;;0.13;;
71475;SDS011;59286;59.274;17.974;2022-07-29T09:49:34;3.20;;;0.20;;
71475;SDS011;59286;59.274;17.974;2022-07-29T09:52:14;0.30;;;0.10;;
71475;SDS011;59286;59.274;17.974;2022-07-29T09:54:39;0.20;;;0.10;;
71475;SDS011;59286;59.274;17.974;2022-07-29T09:57:08;1.00;;;0.10;;
71475;SDS011;59286;59.274;17.974;2022-07-29T09:59:55;0.52;;;0.10;;
71475;SDS011;59286;59.274;17.974;2022-07-29T10:02:31;3.13;;;0.20;;
71475;SDS011;59286;59.274;17.974;2022-07-29T10:04:57;0.43;;;0.10;;
71475;SDS011;59286;59.274;17.974;2022-07-29T10:07:23;1.60;;;0.30;;
71475;SDS011;59286;59.274;17.974;2022-07-29T10:09:53;0.20;;;0.20;;
71475;SDS011;59286;59.274;17.974;2022-07-29T10:12:20;2.08;;;0.10;;
71475;SDS011;59286;59.274;17.974;2022-07-29T10:14:45;0.55;;;0.10;;
71475;SDS011;59286;59.274;17.974;2022-07-29T10:17:12;0.10;;;0.10;;
71475;SDS011;59286;59.274;17.974;2022-07-29T10:19:38;0.10;;;0.10;;
71475;SDS011;59286;59.274;17.974;2022-07-29T10:22:06;0.20;;;0.15;;
71475;SDS011;59286;59.274;17.974;2022-07-29T10:24:36;1.02;;;0.15;;
71475;SDS011;59286;59.274;17.974;2022-07-29T10:27:03;0.00;;;0.00;;
71475;SDS011;59286;59.274;17.974;2022-07-29T10:29:30;0.10;;;0.10;;
71475;SDS011;59286;59.274;17.974;2022-07-29T10:32:07;0.30;;;0.20;;
71475;SDS011;59286;59.274;17.974;2022-07-29T10:42:57;2.47;;;0.08;;
71475;SDS011;59286;59.274;17.974;2022-07-29T10:45:32;0.40;;;0.20;;
71475;SDS011;59286;59.274;17.974;2022-07-29T10:48:05;0.13;;;0.10;;
71475;SDS011;59286;59.274;17.974;2022-07-29T10:50:53;1.15;;;0.10;;
71475;SDS011;59286;59.274;17.974;2022-07-29T10:55:44;0.20;;;0.10;;
71475;SDS011;59286;59.274;17.974;2022-07-29T10:58:20;0.10;;;0.10;;
71475;SDS011;59286;59.274;17.974;2022-07-29T11:00:52;0.50;;;0.20;;
71475;SDS011;59286;59.274;17.974;2022-07-29T11:06:05;0.20;;;0.20;;
71475;SDS011;59286;59.274;17.974;2022-07-29T11:08:30;0.50;;;0.20;;
71475;SDS011;59286;59.274;17.974;2022-07-29T11:11:41;0.35;;;0.20;;
71475;SDS011;59286;59.274;17.974;2022-07-29T11:16:12;0.35;;;0.20;;
71475;SDS011;59286;59.274;17.974;2022-07-29T11:21:44;1.33;;;0.20;;
71475;SDS011;59286;59.274;17.974;2022-07-29T11:24:21;1.25;;;0.20;;
71475;SDS011;59286;59.274;17.974;2022-07-29T11:27:12;0.30;;;0.20;;
71475;SDS011;59286;59.274;17.974;2022-07-29T11:29:50;0.20;;;0.10;;
71475;SDS011;59286;59.274;17.974;2022-07-29T11:32:20;0.30;;;0.10;;
71475;SDS011;59286;59.274;17.974;2022-07-29T11:34:47;0.35;;;0.20;;
71475;SDS011;59286;59.274;17.974;2022-07-29T11:37:14;0.15;;;0.13;;
71475;SDS011;59286;59.274;17.974;2022-07-29T11:39:41;0.70;;;0.20;;
71475;SDS011;59286;59.274;17.974;2022-07-29T11:44:57;0.10;;;0.10;;
71475;SDS011;59286;59.274;17.974;2022-07-29T11:47:31;0.45;;;0.17;;
71475;SDS011;59286;59.274;17.974;2022-07-29T11:49:58;0.65;;;0.20;;
71475;SDS011;59286;59.274;17.974;2022-07-29T11:55:20;0.10;;;0.10;;
71475;SDS011;59286;59.274;17.974;2022-07-29T11:57:52;1.23;;;0.20;;
71475;SDS011;59286;59.274;17.974;2022-07-29T12:02:53;0.10;;;0.10;;
71475;SDS011;59286;59.274;17.974;2022-07-29T12:05:19;2.30;;;0.20;;
71475;SDS011;59286;59.274;17.974;2022-07-29T12:07:45;0.10;;;0.10;;
71475;SDS011;59286;59.274;17.974;2022-07-29T12:10:11;0.20;;;0.10;;
71475;SDS011;59286;59.274;17.974;2022-07-29T12:12:37;0.28;;;0.10;;
71475;SDS011;59286;59.274;17.974;2022-07-29T12:15:16;0.22;;;0.10;;
71475;SDS011;59286;59.274;17.974;2022-07-29T12:17:45;0.15;;;0.10;;
71475;SDS011;59286;59.274;17.974;2022-07-29T12:20:11;0.25;;;0.17;;
71475;SDS011;59286;59.274;17.974;2022-07-29T12:22:39;0.35;;;0.10;;
71475;SDS011;59286;59.274;17.974;2022-07-29T12:25:07;0.17;;;0.10;;
71475;SDS011;59286;59.274;17.974;2022-07-29T12:27:35;0.32;;;0.10;;
71475;SDS011;59286;59.274;17.974;2022-07-29T12:30:06;0.17;;;0.17;;
71475;SDS011;59286;59.274;17.974;2022-07-29T12:35:07;0.43;;;0.10;;
71475;SDS011;59286;59.274;17.974;2022-07-29T12:40:04;0.20;;;0.20;;
71475;SDS011;59286;59.274;17.974;2022-07-29T12:42:32;0.25;;;0.13;;
71475;SDS011;59286;59.274;17.974;2022-07-29T12:44:57;0.10;;;0.10;;
71475;SDS011;59286;59.274;17.974;2022-07-29T12:47:23;0.10;;;0.10;;
71475;SDS011;59286;59.274;17.974;2022-07-29T12:49:49;0.10;;;0.10;;
71475;SDS011;59286;59.274;17.974;2022-07-29T12:54:57;0.35;;;0.10;;
71475;SDS011;59286;59.274;17.974;2022-07-29T12:57:23;0.22;;;0.15;;
71475;SDS011;59286;59.274;17.974;2022-07-29T13:00:03;0.45;;;0.10;;
71475;SDS011;59286;59.274;17.974;2022-07-29T13:02:33;0.30;;;0.10;;
71475;SDS011;59286;59.274;17.974;2022-07-29T13:05:00;0.10;;;0.10;;
71475;SDS011;59286;59.274;17.974;2022-07-29T13:07:30;0.45;;;0.10;;
71475;SDS011;59286;59.274;17.974;2022-07-29T13:10:10;0.82;;;0.20;;
71475;SDS011;59286;59.274;17.974;2022-07-29T13:15:27;0.30;;;0.20;;
71475;SDS011;59286;59.274;17.974;2022-07-29T13:17:52;0.10;;;0.10;;
71475;SDS011;59286;59.274;17.974;2022-07-29T13:20:18;0.73;;;0.30;;
71475;SDS011;59286;59.274;17.974;2022-07-29T13:22:46;0.13;;;0.13;;
71475;SDS011;59286;59.274;17.974;2022-07-29T13:25:12;0.30;;;0.25;;
71475;SDS011;59286;59.274;17.974;2022-07-29T13:27:38;0.10;;;0.10;;
71475;SDS011;59286;59.274;17.974;2022-07-29T13:30:05;0.20;;;0.20;;
71475;SDS011;59286;59.274;17.974;2022-07-29T13:32:33;0.88;;;0.20;;
71475;SDS011;59286;59.274;17.974;2022-07-29T13:35:04;0.45;;;0.20;;
71475;SDS011;59286;59.274;17.974;2022-07-29T13:37:31;0.10;;;0.10;;
71475;SDS011;59286;59.274;17.974;2022-07-29T13:39:59;0.35;;;0.30;;
71475;SDS011;59286;59.274;17.974;2022-07-29T13:42:25;0.20;;;0.13;;
71475;SDS011;59286;59.274;17.974;2022-07-29T13:44:51;0.50;;;0.30;;
71475;SDS011;59286;59.274;17.974;2022-07-29T13:47:17;0.30;;;0.13;;
71475;SDS011;59286;59.274;17.974;2022-07-29T13:49:43;0.25;;;0.20;;
71475;SDS011;59286;59.274;17.974;2022-07-29T13:52:09;0.30;;;0.20;;
71475;SDS011;59286;59.274;17.974;2022-07-29T13:54:34;0.52;;;0.10;;
71475;SDS011;59286;59.274;17.974;2022-07-29T13:57:05;0.15;;;0.10;;
71475;SDS011;59286;59.274;17.974;2022-07-29T13:59:31;0.65;;;0.30;;
71475;SDS011;59286;59.274;17.974;2022-07-29T14:01:57;0.20;;;0.20;;
71475;SDS011;59286;59.274;17.974;2022-07-29T14:04:22;0.20;;;0.20;;
71475;SDS011;59286;59.274;17.974;2022-07-29T14:06:48;0.32;;;0.30;;
71475;SDS011;59286;59.274;17.974;2022-07-29T14:09:14;0.40;;;0.20;;
71475;SDS011;59286;59.274;17.974;2022-07-29T14:11:39;0.40;;;0.20;;
71475;SDS011;59286;59.274;17.974;2022-07-29T14:14:05;1.58;;;0.30;;
71475;SDS011;59286;59.274;17.974;2022-07-29T14:16:30;0.17;;;0.17;;
71475;SDS011;59286;59.274;17.974;2022-07-29T14:18:56;3.45;;;0.40;;
71475;SDS011;59286;59.274;17.974;2022-07-29T14:21:21;1.98;;;0.30;;
71475;SDS011;59286;59.274;17.974;2022-07-29T14:23:46;0.55;;;0.20;;
71475;SDS011;59286;59.274;17.974;2022-07-29T14:26:12;0.40;;;0.20;;
71475;SDS011;59286;59.274;17.974;2022-07-29T14:28:38;1.52;;;0.30;;
71475;SDS011;59286;59.274;17.974;2022-07-29T14:31:03;0.20;;;0.20;;
71475;SDS011;59286;59.274;17.974;2022-07-29T14:33:29;2.70;;;0.20;;
71475;SDS011;59286;59.274;17.974;2022-07-29T14:35:54;0.75;;;0.30;;
71475;SDS011;59286;59.274;17.974;2022-07-29T14:38:19;0.30;;;0.20;;
71475;SDS011;59286;59.274;17.974;2022-07-29T14:40:45;1.83;;;0.30;;
71475;SDS011;59286;59.274;17.974;2022-07-29T14:43:11;0.43;;;0.20;;
71475;SDS011;59286;59.274;17.974;2022-07-29T14:45:37;0.10;;;0.10;;
71475;SDS011;59286;59.274;17.974;2022-07-29T14:48:03;0.22;;;0.10;;
71475;SDS011;59286;59.274;17.974;2022-07-29T14:50:28;0.20;;;0.20;;
71475;SDS011;59286;59.274;17.974;2022-07-29T14:52:53;0.95;;;0.20;;
71475;SDS011;59286;59.274;17.974;2022-07-29T14:55:19;1.20;;;0.35;;
71475;SDS011;59286;59.274;17.974;2022-07-29T14:57:44;2.90;;;0.20;;
71475;SDS011;59286;59.274;17.974;2022-07-29T15:00:10;1.98;;;0.45;;
71475;SDS011;59286;59.274;17.974;2022-07-29T15:02:36;0.20;;;0.10;;
71475;SDS011;59286;59.274;17.974;2022-07-29T15:05:01;0.98;;;0.30;;
71475;SDS011;59286;59.274;17.974;2022-07-29T15:07:27;3.20;;;0.10;;
71475;SDS011;59286;59.274;17.974;2022-07-29T15:09:53;2.00;;;0.20;;
71475;SDS011;59286;59.274;17.974;2022-07-29T15:12:18;0.68;;;0.17;;
71475;SDS011;59286;59.274;17.974;2022-07-29T15:14:43;2.42;;;0.20;;
71475;SDS011;59286;59.274;17.974;2022-07-29T15:17:09;0.90;;;0.20;;
71475;SDS011;59286;59.274;17.974;2022-07-29T15:19:35;0.30;;;0.10;;
71475;SDS011;59286;59.274;17.974;2022-07-29T15:22:00;0.38;;;0.20;;
71475;SDS011;59286;59.274;17.974;2022-07-29T15:24:26;0.85;;;0.20;;
71475;SDS011;59286;59.274;17.974;2022-07-29T15:26:52;0.75;;;0.20;;
71475;SDS011;59286;59.274;17.974;2022-07-29T15:29:17;0.40;;;0.10;;
71475;SDS011;59286;59.274;17.974;2022-07-29T15:31:43;0.20;;;0.15;;
71475;SDS011;59286;59.274;17.974;2022-07-29T15:34:08;0.60;;;0.10;;